Погода Анкарана неделю

Центральная Анатолия, Турция

06 - 12 сентября
  • 06сентября
    Сегодня
    +15°
    +32°
    Ясно и безоблачно
    ВремяПогодаТемператураВлажностьДавлениеВетер, м/сВероятность осадков
    00:00Ясно и безоблачно+21°C33 %692 мм2.3 м/с2 %
    03:00Ясно и безоблачно+19°C42 %691 мм2.5 м/с2 %
    06:00Ясно и безоблачно+16°C53 %690 мм2.3 м/с2 %
    09:00Ясно и безоблачно+24°C40 %692 мм2.1 м/с2 %
    12:00Ясно и безоблачно+28°C29 %693 мм2.1 м/с2 %
    15:00Ясно и безоблачно+31°C23 %692 мм2.3 м/с2 %
    18:00Ясно и безоблачно+30°C22 %691 мм3.3 м/с2 %
    21:00Ясно и безоблачно+25°C32 %693 мм2.9 м/с2 %
  • 07сентября
    Понедельник
    +11°
    +27°
    Ясно и безоблачно
    ВремяПогодаТемператураВлажностьДавлениеВетер, м/сВероятность осадков
    00:00Ясно и безоблачно+21°C40 %694 мм2.5 м/с3 %
    03:00Ясно и безоблачно+18°C53 %694 мм3.1 м/с2 %
    06:00Ясно и безоблачно+16°C63 %694 мм2.8 м/с2 %
    09:00Ясно и безоблачно+21°C43 %696 мм3.6 м/с2 %
    12:00Ясно и безоблачно+24°C30 %696 мм3.3 м/с2 %
    15:00Ясно и безоблачно+27°C26 %695 мм3.2 м/с2 %
    18:00Ясно и безоблачно+25°C25 %694 мм3.1 м/с2 %
    21:00Ясно и безоблачно+20°C36 %694 мм3.5 м/с2 %
  • 08сентября
    Вторник
    +12°
    +26°
    Ясно и безоблачно
    ВремяПогодаТемператураВлажностьДавлениеВетер, м/сВероятность осадков
    00:00Ясно и безоблачно+16°C45 %694 мм2.8 м/с2 %
    03:00Ясно и безоблачно+14°C55 %693 мм3.1 м/с2 %
    06:00Ясно и безоблачно+12°C69 %693 мм2.7 м/с2 %
    09:00Ясно и безоблачно+17°C57 %694 мм3.0 м/с2 %
    12:00Ясно и безоблачно+22°C35 %693 мм2.7 м/с2 %
    15:00Ясно и безоблачно+25°C26 %692 мм3.0 м/с2 %
    18:00Ясно и безоблачно+24°C22 %691 мм2.9 м/с2 %
    21:00Ясно и безоблачно+19°C30 %690 мм2.6 м/с2 %
  • 09сентября
    Среда
    +13°
    +28°
    Ясно и безоблачно
    ВремяПогодаТемператураВлажностьДавлениеВетер, м/сВероятность осадков
    00:00Ясно и безоблачно+16°C39 %690 мм2.6 м/с2 %
    03:00Ясно и безоблачно+14°C51 %689 мм2.9 м/с2 %
    06:00Ясно и безоблачно+13°C63 %689 мм2.6 м/с2 %
    09:00Ясно и безоблачно+19°C48 %690 мм2.5 м/с2 %
    12:00Ясно и безоблачно+24°C34 %690 мм2.3 м/с2 %
    15:00Ясно и безоблачно+27°C26 %689 мм2.1 м/с2 %
    18:00Ясно и безоблачно+27°C21 %688 мм1.9 м/с2 %
    21:00Ясно и безоблачно+22°C26 %688 мм2.2 м/с2 %
  • 10сентября
    Четверг
    +16°
    +31°
    Ясно и безоблачно
    ВремяПогодаТемператураВлажностьДавлениеВетер, м/сВероятность осадков
    00:00Ясно и безоблачно+18°C33 %688 мм2.4 м/с2 %
    03:00Ясно и безоблачно+16°C37 %688 мм2.8 м/с2 %
    06:00Ясно и безоблачно+15°C55 %688 мм2.5 м/с2 %
    09:00Ясно и безоблачно+21°C39 %690 мм2.3 м/с2 %
    12:00Ясно и безоблачно+27°C30 %691 мм2.1 м/с2 %
    15:00Ясно и безоблачно+30°C23 %690 мм2.0 м/с2 %
    18:00Ясно и безоблачно+30°C20 %690 мм1.5 м/с2 %
    21:00Ясно и безоблачно+24°C28 %690 мм1.5 м/с2 %
  • 11сентября
    Пятница
    +15°
    +32°
    Ясно и безоблачно
    ВремяПогодаТемператураВлажностьДавлениеВетер, м/сВероятность осадков
    03:00Ясно и безоблачно+18°C38 %689 мм2.5 м/с2 %
    09:00Ясно и безоблачно+24°C28 %692 мм2.0 м/с2 %
    15:00Ясно и безоблачно+32°C20 %691 мм2.1 м/с2 %
    21:00Ясно и безоблачно+26°C29 %692 мм1.7 м/с2 %
  • 12сентября
    Суббота
    +16°
    +33°
    Ясно и безоблачно
    ВремяПогодаТемператураВлажностьДавлениеВетер, м/сВероятность осадков
    03:00Ясно и безоблачно+18°C50 %691 мм1.5 м/с2 %
    09:00Ясно и безоблачно+21°C42 %692 мм1.1 м/с2 %
    15:00Ясно и безоблачно+32°C18 %692 мм2.4 м/с2 %
    21:00Ясно и безоблачно+26°C24 %691 мм1.6 м/с2 %
Мы используем cookies
Соглашаюсь